createdAt,value
2023-01-18T00:01:39.246Z,100840.88
2023-01-18T00:04:10.731Z,100845.38
2023-01-18T00:06:41.293Z,100834.88
2023-01-18T00:09:13.813Z,100830.66
2023-01-18T00:11:44.921Z,100827.16
2023-01-18T00:14:15.873Z,100829.00
2023-01-18T00:16:46.347Z,100817.81
2023-01-18T00:19:17.565Z,100815.00
2023-01-18T00:21:47.907Z,100815.34
2023-01-18T00:24:18.730Z,100807.25
2023-01-18T00:26:49.583Z,100801.50
2023-01-18T00:29:20.749Z,100800.28
2023-01-18T00:31:51.808Z,100795.41
2023-01-18T00:34:22.848Z,100793.72
2023-01-18T00:36:54.025Z,100781.00
2023-01-18T00:39:25.876Z,100776.22
2023-01-18T00:42:15.635Z,100783.34
2023-01-18T00:44:46.557Z,100787.97
2023-01-18T00:47:17.058Z,100776.56
2023-01-18T00:49:48.340Z,100766.16
2023-01-18T00:52:18.649Z,100773.97
2023-01-18T00:54:49.513Z,100766.97
2023-01-18T00:57:20.455Z,100763.69
2023-01-18T00:59:51.629Z,100754.25
2023-01-18T01:02:23.017Z,100747.00
2023-01-18T01:05:12.210Z,100750.97
2023-01-18T01:07:43.634Z,100744.28
2023-01-18T01:10:14.779Z,100735.63
2023-01-18T01:13:06.580Z,100736.19
2023-01-18T01:15:57.472Z,100746.78
2023-01-18T01:18:46.543Z,100728.38
2023-01-18T01:21:35.648Z,100721.06
2023-01-18T01:24:25.253Z,100702.78
2023-01-18T01:26:56.073Z,100695.66
2023-01-18T01:29:26.704Z,100697.84
2023-01-18T01:31:57.866Z,100683.31
2023-01-18T01:34:28.604Z,100687.91
2023-01-18T01:36:59.538Z,100675.84
2023-01-18T01:39:31.965Z,100680.75
2023-01-18T01:42:03.318Z,100677.50
2023-01-18T01:44:35.637Z,100670.63
2023-01-18T01:47:37.489Z,100666.06
2023-01-18T01:50:33.898Z,100663.59
2023-01-18T01:53:06.022Z,100661.81
2023-01-18T01:55:39.013Z,100657.66
2023-01-18T01:58:17.326Z,100653.28
2023-01-18T02:00:48.567Z,100653.22
2023-01-18T02:03:20.612Z,100638.88
2023-01-18T02:05:55.069Z,100645.63
2023-01-18T02:08:26.730Z,100646.78
2023-01-18T02:10:57.874Z,100643.56
2023-01-18T02:13:29.296Z,100637.94
2023-01-18T02:16:12.931Z,100644.19
2023-01-18T02:19:14.980Z,100644.63
2023-01-18T02:22:10.390Z,100634.88
2023-01-18T02:25:04.117Z,100632.75
2023-01-18T02:27:47.899Z,100635.25
2023-01-18T02:30:30.417Z,100624.34
2023-01-18T02:33:16.791Z,100611.28
2023-01-18T02:35:58.858Z,100620.06
2023-01-18T02:38:39.440Z,100606.94
2023-01-18T02:41:13.442Z,100608.03
2023-01-18T02:44:03.657Z,100608.91
2023-01-18T02:46:38.014Z,100599.81
2023-01-18T02:49:10.825Z,100602.88
2023-01-18T02:51:41.957Z,100588.53
2023-01-18T02:54:25.542Z,100595.44
2023-01-18T02:56:57.199Z,100585.13
2023-01-18T02:59:38.256Z,100584.91
2023-01-18T03:02:15.814Z,100584.94
2023-01-18T03:04:58.414Z,100578.56
2023-01-18T03:07:37.390Z,100579.91
2023-01-18T03:10:10.528Z,100570.59
2023-01-18T03:13:02.686Z,100565.94
2023-01-18T03:15:44.654Z,100568.41
2023-01-18T03:18:28.107Z,100549.63
2023-01-18T03:20:59.743Z,100547.31
2023-01-18T03:23:43.830Z,100548.00
2023-01-18T03:26:18.283Z,100545.53
2023-01-18T03:29:17.505Z,100543.88
2023-01-18T03:32:32.538Z,100546.53
2023-01-18T03:35:15.795Z,100534.25
2023-01-18T03:37:48.036Z,100530.38
2023-01-18T03:40:26.118Z,100517.63
2023-01-18T03:43:05.799Z,100522.47
2023-01-18T03:45:41.583Z,100522.03
2023-01-18T03:48:12.945Z,100515.75
2023-01-18T03:50:54.474Z,100512.28
2023-01-18T03:54:12.871Z,100511.00
2023-01-18T03:56:51.136Z,100503.31
2023-01-18T03:59:23.125Z,100499.84
2023-01-18T04:01:54.757Z,100494.81
2023-01-18T04:04:26.099Z,100488.25
2023-01-18T04:06:56.539Z,100494.19
2023-01-18T04:09:28.571Z,100492.47
2023-01-18T04:12:00.257Z,100485.25
2023-01-18T04:14:31.384Z,100475.94
2023-01-18T04:17:01.961Z,100467.22
2023-01-18T04:19:32.908Z,100473.59
2023-01-18T04:22:03.866Z,100466.41
2023-01-18T04:24:35.022Z,100464.13
2023-01-18T04:27:09.055Z,100461.34
2023-01-18T04:29:40.189Z,100458.63
2023-01-18T04:32:11.295Z,100465.88
2023-01-18T04:34:42.680Z,100459.38
2023-01-18T04:37:13.741Z,100461.16
2023-01-18T04:39:45.090Z,100458.19
2023-01-18T04:42:15.995Z,100458.47
2023-01-18T04:44:47.573Z,100452.31
2023-01-18T04:47:18.930Z,100446.75
2023-01-18T04:49:49.345Z,100443.66
2023-01-18T04:52:20.455Z,100447.69
2023-01-18T04:54:52.147Z,100449.78
2023-01-18T04:57:23.056Z,100446.84
2023-01-18T04:59:53.907Z,100440.09
2023-01-18T05:02:24.759Z,100440.66
2023-01-18T05:04:56.002Z,100433.25
2023-01-18T05:07:27.866Z,100436.34
2023-01-18T05:09:59.205Z,100429.16
2023-01-18T05:12:31.399Z,100433.19
2023-01-18T05:15:02.620Z,100432.47
2023-01-18T05:17:36.144Z,100442.84
2023-01-18T05:20:09.189Z,100431.28
2023-01-18T05:22:40.261Z,100428.66
2023-01-18T05:25:11.708Z,100431.13
2023-01-18T05:27:42.908Z,100420.69
2023-01-18T05:30:13.873Z,100424.16
2023-01-18T05:32:45.139Z,100420.94
2023-01-18T05:35:16.067Z,100421.38
2023-01-18T05:37:46.827Z,100423.56
2023-01-18T05:40:17.972Z,100424.44
2023-01-18T05:42:48.918Z,100421.56
2023-01-18T05:45:21.414Z,100419.59
2023-01-18T05:47:52.464Z,100425.22
2023-01-18T05:50:23.842Z,100423.88
2023-01-18T05:52:54.954Z,100429.34
2023-01-18T05:55:25.418Z,100421.28
2023-01-18T05:57:56.340Z,100399.06
2023-01-18T06:00:26.846Z,100417.97
2023-01-18T06:02:58.092Z,100414.09
2023-01-18T06:05:29.670Z,100419.88
2023-01-18T06:08:01.019Z,100422.38
2023-01-18T06:10:32.145Z,100425.00
2023-01-18T06:13:03.490Z,100422.56
2023-01-18T06:15:34.762Z,100430.22
2023-01-18T06:18:05.874Z,100433.81
2023-01-18T06:20:36.821Z,100437.56
2023-01-18T06:23:07.837Z,100437.66
2023-01-18T06:25:38.416Z,100435.75
2023-01-18T06:28:09.470Z,100442.75
2023-01-18T06:30:40.226Z,100442.13
2023-01-18T06:33:12.098Z,100444.53
2023-01-18T06:35:44.752Z,100444.00
2023-01-18T06:38:16.127Z,100451.91
2023-01-18T06:40:46.590Z,100453.03
2023-01-18T06:43:18.290Z,100450.75
2023-01-18T06:45:59.421Z,100456.38
2023-01-18T06:48:31.245Z,100454.84
2023-01-18T06:51:02.197Z,100454.28
2023-01-18T06:53:33.111Z,100471.78
2023-01-18T06:56:04.020Z,100448.84
2023-01-18T06:58:35.989Z,100460.63
2023-01-18T07:01:07.169Z,100467.41
2023-01-18T07:03:38.045Z,100461.13
2023-01-18T07:06:09.338Z,100465.31
2023-01-18T07:08:41.643Z,100464.94
2023-01-18T07:11:15.669Z,100458.88
2023-01-18T07:13:47.714Z,100467.25
2023-01-18T07:16:22.706Z,100466.44
2023-01-18T07:18:53.635Z,100472.28
2023-01-18T07:21:30.895Z,100471.63
2023-01-18T07:24:02.110Z,100471.09
2023-01-18T07:26:33.105Z,100471.78
2023-01-18T07:29:03.720Z,100478.31
2023-01-18T07:31:34.845Z,100483.50
2023-01-18T07:34:06.054Z,100483.66
2023-01-18T07:36:37.457Z,100485.28
2023-01-18T07:39:08.947Z,100480.84
2023-01-18T07:41:40.330Z,100488.03
2023-01-18T07:44:13.173Z,100489.97
2023-01-18T07:46:45.503Z,100486.41
2023-01-18T07:49:17.078Z,100499.78
2023-01-18T07:51:47.627Z,100496.06
2023-01-18T07:54:20.525Z,100504.56
2023-01-18T07:56:51.548Z,100507.22
2023-01-18T07:59:22.456Z,100517.06
2023-01-18T08:01:53.563Z,100520.94
2023-01-18T08:04:24.542Z,100528.03
2023-01-18T08:06:58.995Z,100536.28
2023-01-18T08:09:29.915Z,100531.25
2023-01-18T08:12:00.785Z,100529.31
2023-01-18T08:14:31.698Z,100537.88
2023-01-18T08:17:03.012Z,100533.38
2023-01-18T08:19:34.145Z,100533.88
2023-01-18T08:22:05.354Z,100539.69
2023-01-18T08:24:36.349Z,100545.66
2023-01-18T08:27:07.333Z,100547.06
2023-01-18T08:29:38.409Z,100545.66
2023-01-18T08:32:09.077Z,100554.34
2023-01-18T08:34:40.729Z,100558.75
2023-01-18T08:37:13.225Z,100564.41
2023-01-18T08:39:44.101Z,100554.56
2023-01-18T08:42:15.533Z,100570.34
2023-01-18T08:44:46.712Z,100562.94
2023-01-18T08:47:19.582Z,100570.44
2023-01-18T08:49:50.560Z,100563.81
2023-01-18T08:52:22.031Z,100571.75
2023-01-18T08:54:53.867Z,100576.22
2023-01-18T08:57:25.121Z,100577.50
2023-01-18T08:59:58.750Z,100581.44
2023-01-18T09:02:30.918Z,100580.44
2023-01-18T09:05:02.366Z,100591.50
2023-01-18T09:07:33.668Z,100593.63
2023-01-18T09:10:04.602Z,100601.81
2023-01-18T09:12:36.254Z,100599.84
2023-01-18T09:15:07.802Z,100605.44
2023-01-18T09:17:38.174Z,100609.50
2023-01-18T09:20:11.144Z,100613.81
2023-01-18T09:22:44.225Z,100627.09
2023-01-18T09:25:15.686Z,100627.66
2023-01-18T09:27:48.023Z,100640.91
2023-01-18T09:30:20.191Z,100640.56
2023-01-18T09:32:51.152Z,100633.66
2023-01-18T09:35:22.224Z,100630.00
2023-01-18T09:37:53.080Z,100626.13
2023-01-18T09:40:27.025Z,100625.88
2023-01-18T09:42:58.180Z,100628.75
2023-01-18T09:45:35.317Z,100627.53
2023-01-18T09:48:09.523Z,100631.38
2023-01-18T09:50:45.663Z,100630.56
2023-01-18T09:53:22.312Z,100633.72
2023-01-18T09:56:03.946Z,100628.41
2023-01-18T09:58:40.704Z,100631.84
2023-01-18T10:01:24.262Z,100626.13
2023-01-18T10:03:56.764Z,100628.63
2023-01-18T10:06:46.496Z,100629.13
2023-01-18T10:09:44.699Z,100628.25
2023-01-18T10:12:43.235Z,100635.47
2023-01-18T10:15:23.718Z,100631.78
2023-01-18T10:17:58.018Z,100628.25
2023-01-18T10:20:41.340Z,100629.53
2023-01-18T10:23:34.345Z,100630.41
2023-01-18T10:26:11.713Z,100638.75
2023-01-18T10:29:27.923Z,100633.25
2023-01-18T10:32:13.446Z,100635.78
2023-01-18T10:34:48.108Z,100631.34
2023-01-18T10:37:44.908Z,100626.19
2023-01-18T10:40:16.775Z,100625.06
2023-01-18T10:43:01.036Z,100619.00
2023-01-18T10:45:35.917Z,100612.13
2023-01-18T10:48:19.486Z,100614.38
2023-01-18T10:50:53.511Z,100608.09
2023-01-18T10:53:38.496Z,100598.06
2023-01-18T10:56:14.495Z,100602.44
2023-01-18T10:58:59.058Z,100605.66
2023-01-18T11:01:36.121Z,100602.63
2023-01-18T11:04:17.521Z,100604.81
2023-01-18T11:06:52.969Z,100608.69
2023-01-18T11:09:43.704Z,100608.19
2023-01-18T11:12:47.037Z,100610.91
2023-01-18T11:15:17.902Z,100607.66
2023-01-18T11:18:02.615Z,100616.97
2023-01-18T11:20:39.267Z,100615.94
2023-01-18T11:23:16.337Z,100610.47
2023-01-18T11:25:58.563Z,100604.00
2023-01-18T11:28:33.093Z,100606.41
2023-01-18T11:31:20.490Z,100598.84
2023-01-18T11:34:00.478Z,100596.41
2023-01-18T11:36:44.369Z,100600.50
2023-01-18T11:39:28.600Z,100598.50
2023-01-18T11:42:28.774Z,100601.81
2023-01-18T11:45:17.577Z,100592.94
2023-01-18T11:48:03.387Z,100598.94
2023-01-18T11:50:38.024Z,100592.09
2023-01-18T11:53:21.260Z,100589.06
2023-01-18T11:56:06.326Z,100581.72
2023-01-18T11:58:38.246Z,100578.91
2023-01-18T12:01:30.906Z,100575.00
2023-01-18T12:04:05.293Z,100573.09
2023-01-18T12:07:07.875Z,100567.06
2023-01-18T12:09:48.091Z,100567.56
2023-01-18T12:12:34.687Z,100568.75
2023-01-18T12:15:06.173Z,100578.56
2023-01-18T12:18:12.862Z,100560.50
2023-01-18T12:20:59.352Z,100551.44
2023-01-18T12:23:40.448Z,100547.38
2023-01-18T12:26:22.888Z,100545.38
2023-01-18T12:29:11.428Z,100544.44
2023-01-18T12:32:00.555Z,100542.31
2023-01-18T12:35:12.638Z,100544.84
2023-01-18T12:38:26.148Z,100542.19
2023-01-18T12:41:24.476Z,100546.53
2023-01-18T12:44:13.683Z,100548.09
2023-01-18T12:46:56.640Z,100539.63
2023-01-18T12:49:29.359Z,100529.78
2023-01-18T12:52:18.089Z,100520.41
2023-01-18T12:55:01.612Z,100528.84
2023-01-18T12:57:32.950Z,100524.00
2023-01-18T13:00:15.720Z,100527.97
2023-01-18T13:02:50.617Z,100524.91
2023-01-18T13:05:36.286Z,100512.63
2023-01-18T13:08:38.272Z,100508.84
2023-01-18T13:11:20.837Z,100505.75
2023-01-18T13:14:04.412Z,100511.84
2023-01-18T13:16:51.248Z,100506.69
2023-01-18T13:19:27.206Z,100496.13
2023-01-18T13:22:21.972Z,100496.66
2023-01-18T13:25:24.966Z,100495.28
2023-01-18T13:28:06.909Z,100496.66
2023-01-18T13:30:46.460Z,100498.28
2023-01-18T13:33:18.481Z,100487.09
2023-01-18T13:36:04.549Z,100481.41
2023-01-18T13:38:42.165Z,100477.84
2023-01-18T13:41:14.773Z,100480.78
2023-01-18T13:43:45.839Z,100470.22
2023-01-18T13:46:27.513Z,100464.00
2023-01-18T13:49:03.110Z,100466.09
2023-01-18T13:51:46.311Z,100461.53
2023-01-18T13:54:41.705Z,100462.59
2023-01-18T13:57:17.577Z,100459.56
2023-01-18T13:59:53.347Z,100455.81
2023-01-18T14:02:35.475Z,100450.22
2023-01-18T14:05:28.346Z,100450.44
2023-01-18T14:08:02.167Z,100439.69
2023-01-18T14:10:35.691Z,100431.69
2023-01-18T14:13:08.815Z,100431.06
2023-01-18T14:15:46.503Z,100427.31
2023-01-18T14:18:29.267Z,100425.56
2023-01-18T14:21:27.383Z,100429.25
2023-01-18T14:24:12.023Z,100425.56
2023-01-18T14:26:44.386Z,100425.47
2023-01-18T14:29:15.682Z,100427.75
2023-01-18T14:31:51.423Z,100420.47
2023-01-18T14:34:34.274Z,100405.31
2023-01-18T14:37:05.838Z,100396.25
2023-01-18T14:39:36.289Z,100404.41
2023-01-18T14:42:07.683Z,100392.00
2023-01-18T14:44:58.384Z,100396.63
2023-01-18T14:47:35.202Z,100396.00
2023-01-18T14:50:07.035Z,100389.78
2023-01-18T14:52:38.764Z,100388.22
2023-01-18T14:55:27.591Z,100386.72
2023-01-18T14:58:20.483Z,100387.00
2023-01-18T15:00:55.224Z,100389.72
2023-01-18T15:03:31.518Z,100375.66
2023-01-18T15:06:41.869Z,100384.66
2023-01-18T15:09:14.111Z,100387.81
2023-01-18T15:11:46.850Z,100391.13
2023-01-18T15:14:36.723Z,100392.41
2023-01-18T15:17:24.678Z,100396.56
2023-01-18T15:20:01.130Z,100394.81
2023-01-18T15:22:37.407Z,100395.31
2023-01-18T15:25:17.712Z,100396.66
2023-01-18T15:27:53.684Z,100396.53
2023-01-18T15:30:26.039Z,100396.22
2023-01-18T15:32:58.803Z,100391.00
2023-01-18T15:38:08.041Z,100398.06
2023-01-18T15:40:39.509Z,100390.38
2023-01-18T15:43:19.289Z,100398.97
2023-01-18T15:45:51.540Z,100391.56
2023-01-18T15:48:23.374Z,100384.56
2023-01-18T15:50:54.576Z,100383.84
2023-01-18T15:53:28.383Z,100384.41
2023-01-18T15:56:08.525Z,100386.72
2023-01-18T15:58:45.054Z,100386.81
2023-01-18T16:01:19.143Z,100384.47
2023-01-18T16:03:50.197Z,100378.25
2023-01-18T16:06:24.420Z,100379.59
2023-01-18T16:09:22.553Z,100380.56
2023-01-18T16:11:55.799Z,100372.47
2023-01-18T16:14:34.134Z,100378.53
2023-01-18T16:17:05.042Z,100379.69
2023-01-18T16:19:36.416Z,100389.03
2023-01-18T16:22:09.772Z,100383.28
2023-01-18T16:25:09.953Z,100384.69
2023-01-18T16:27:52.788Z,100380.72
2023-01-18T16:30:29.975Z,100386.22
2023-01-18T16:33:14.368Z,100380.41
2023-01-18T16:35:45.772Z,100385.59
2023-01-18T16:38:18.514Z,100377.34
2023-01-18T16:40:51.292Z,100377.41
2023-01-18T16:43:26.090Z,100380.63
2023-01-18T16:46:00.260Z,100379.34
2023-01-18T16:48:32.497Z,100383.91
2023-01-18T16:51:03.859Z,100390.13
2023-01-18T16:53:35.229Z,100393.97
2023-01-18T16:56:07.479Z,100397.72
2023-01-18T16:58:38.479Z,100404.44
2023-01-18T17:01:15.338Z,100403.78
2023-01-18T17:03:46.637Z,100406.78
2023-01-18T17:06:23.474Z,100408.91
2023-01-18T17:08:54.548Z,100407.59
2023-01-18T17:11:25.637Z,100413.41
2023-01-18T17:13:56.835Z,100419.09
2023-01-18T17:16:28.219Z,100414.59
2023-01-18T17:18:59.116Z,100409.44
2023-01-18T17:21:30.079Z,100411.13
2023-01-18T17:24:01.263Z,100410.03
2023-01-18T17:26:32.239Z,100410.00
2023-01-18T17:29:03.543Z,100406.78
2023-01-18T17:31:35.363Z,100401.91
2023-01-18T17:34:08.697Z,100408.63
2023-01-18T17:36:39.224Z,100419.31
2023-01-18T17:39:10.086Z,100410.16
2023-01-18T17:41:42.244Z,100408.63
2023-01-18T17:44:13.581Z,100419.31
2023-01-18T17:46:44.474Z,100412.59
2023-01-18T17:49:15.313Z,100413.94
2023-01-18T17:51:46.444Z,100416.06
2023-01-18T17:54:20.991Z,100404.25
2023-01-18T17:56:52.708Z,100405.44
2023-01-18T17:59:23.771Z,100407.72
2023-01-18T18:01:55.238Z,100405.78
2023-01-18T18:04:26.330Z,100410.47
2023-01-18T18:06:59.938Z,100416.88
2023-01-18T18:09:31.332Z,100412.91
2023-01-18T18:12:02.333Z,100405.88
2023-01-18T18:14:35.701Z,100398.16
2023-01-18T18:17:08.480Z,100407.13
2023-01-18T18:19:39.673Z,100410.31
2023-01-18T18:22:10.713Z,100406.69
2023-01-18T18:24:41.889Z,100401.47
2023-01-18T18:27:13.422Z,100402.84
2023-01-18T18:29:44.243Z,100398.88
2023-01-18T18:32:15.972Z,100402.63
2023-01-18T18:34:47.074Z,100406.47
2023-01-18T18:37:19.383Z,100406.91
2023-01-18T18:39:50.500Z,100409.84
2023-01-18T18:42:21.700Z,100404.69
2023-01-18T18:44:53.099Z,100416.03
2023-01-18T18:47:24.305Z,100421.22
2023-01-18T18:49:55.618Z,100413.63
2023-01-18T18:52:26.779Z,100413.84
2023-01-18T18:54:58.301Z,100417.00
2023-01-18T18:57:30.850Z,100404.28
2023-01-18T19:00:01.934Z,100425.38
2023-01-18T19:02:34.490Z,100429.97
2023-01-18T19:05:08.258Z,100428.88
2023-01-18T19:07:39.555Z,100430.59
2023-01-18T19:10:12.195Z,100439.72
2023-01-18T19:12:43.009Z,100441.38
2023-01-18T19:15:14.246Z,100439.84
2023-01-18T19:17:45.728Z,100434.41
2023-01-18T19:20:19.122Z,100430.84
2023-01-18T19:22:50.942Z,100435.41
2023-01-18T19:25:21.444Z,100446.84
2023-01-18T19:27:52.749Z,100443.91
2023-01-18T19:30:23.972Z,100441.00
2023-01-18T19:32:55.516Z,100429.84
2023-01-18T19:35:28.367Z,100432.03
2023-01-18T19:38:02.223Z,100427.66
2023-01-18T19:40:33.657Z,100426.38
2023-01-18T19:43:05.001Z,100421.06
2023-01-18T19:45:37.565Z,100423.13
2023-01-18T19:48:09.063Z,100427.78
2023-01-18T19:50:39.540Z,100432.28
2023-01-18T19:53:10.841Z,100432.88
2023-01-18T19:55:42.001Z,100422.53
2023-01-18T19:58:12.707Z,100422.53
2023-01-18T20:00:43.982Z,100426.44
2023-01-18T20:03:15.615Z,100424.28
2023-01-18T20:05:47.614Z,100428.50
2023-01-18T20:08:18.542Z,100410.72
2023-01-18T20:10:50.489Z,100413.16
2023-01-18T20:13:21.957Z,100420.88
2023-01-18T20:15:55.503Z,100414.03
2023-01-18T20:18:27.024Z,100421.06
2023-01-18T20:20:58.476Z,100424.38
2023-01-18T20:23:28.896Z,100414.28
2023-01-18T20:25:59.819Z,100416.38
2023-01-18T20:28:30.875Z,100419.53
2023-01-18T20:31:04.356Z,100427.38
2023-01-18T20:33:36.771Z,100415.81
2023-01-18T20:36:12.410Z,100406.34
2023-01-18T20:38:43.801Z,100408.00
2023-01-18T20:41:14.292Z,100406.47
2023-01-18T20:43:45.304Z,100399.47
2023-01-18T20:46:16.572Z,100396.13
2023-01-18T20:48:47.479Z,100401.94
2023-01-18T20:51:19.330Z,100395.06
2023-01-18T20:53:51.035Z,100398.47
2023-01-18T20:56:30.119Z,100393.16
2023-01-18T20:59:02.308Z,100392.03
2023-01-18T21:01:33.964Z,100395.66
2023-01-18T21:04:07.747Z,100383.97
2023-01-18T21:06:39.050Z,100383.78
2023-01-18T21:09:09.516Z,100387.25
2023-01-18T21:11:40.993Z,100387.69
2023-01-18T21:14:12.148Z,100387.09
2023-01-18T21:16:43.012Z,100380.69
2023-01-18T21:19:14.185Z,100377.22
2023-01-18T21:21:44.643Z,100382.03
2023-01-18T21:24:15.790Z,100379.81
2023-01-18T21:26:46.587Z,100382.44
2023-01-18T21:29:17.460Z,100369.16
2023-01-18T21:31:48.424Z,100371.16
2023-01-18T21:34:19.391Z,100368.16
2023-01-18T21:36:51.635Z,100369.22
2023-01-18T21:39:26.596Z,100368.44
2023-01-18T21:42:15.488Z,100363.47
2023-01-18T21:45:04.393Z,100359.88
2023-01-18T21:47:35.373Z,100363.97
2023-01-18T21:50:24.827Z,100354.06
2023-01-18T21:53:14.402Z,100359.41
2023-01-18T21:55:45.485Z,100359.56
2023-01-18T21:58:35.082Z,100346.25
2023-01-18T22:01:18.575Z,100347.81
2023-01-18T22:04:07.961Z,100354.22
2023-01-18T22:06:39.130Z,100356.72
2023-01-18T22:09:09.985Z,100346.63
2023-01-18T22:11:41.360Z,100344.28
2023-01-18T22:14:13.013Z,100345.38
2023-01-18T22:16:44.524Z,100355.97
2023-01-18T22:19:16.554Z,100354.47
2023-01-18T22:21:48.718Z,100353.28
2023-01-18T22:24:20.280Z,100359.44
2023-01-18T22:26:51.336Z,100357.88
2023-01-18T22:29:23.137Z,100352.66
2023-01-18T22:31:54.619Z,100352.38
2023-01-18T22:34:26.005Z,100349.94
2023-01-18T22:36:57.439Z,100351.44
2023-01-18T22:39:28.755Z,100346.75
2023-01-18T22:41:59.353Z,100351.38
2023-01-18T22:44:30.391Z,100349.94
2023-01-18T22:47:01.383Z,100344.09
2023-01-18T22:49:32.590Z,100361.00
2023-01-18T22:52:03.735Z,100352.78
2023-01-18T22:54:35.165Z,100351.06
2023-01-18T22:57:05.714Z,100350.94
2023-01-18T22:59:36.910Z,100350.22
2023-01-18T23:02:08.640Z,100343.75
2023-01-18T23:04:39.721Z,100331.84
2023-01-18T23:07:10.178Z,100332.41
2023-01-18T23:09:41.743Z,100335.31
2023-01-18T23:12:12.801Z,100330.84
2023-01-18T23:15:02.536Z,100330.28
2023-01-18T23:17:44.455Z,100329.53
2023-01-18T23:20:16.329Z,100329.25
2023-01-18T23:22:47.348Z,100320.41
2023-01-18T23:25:18.731Z,100305.44
2023-01-18T23:27:49.646Z,100319.47
2023-01-18T23:30:21.798Z,100310.19
2023-01-18T23:32:52.927Z,100315.00
2023-01-18T23:35:24.063Z,100318.44
2023-01-18T23:37:55.820Z,100310.06
2023-01-18T23:40:45.243Z,100303.44
2023-01-18T23:43:34.117Z,100305.72
2023-01-18T23:46:23.238Z,100309.16
2023-01-18T23:49:12.519Z,100307.63
2023-01-18T23:52:01.796Z,100303.31
2023-01-18T23:54:33.009Z,100312.66
2023-01-18T23:57:04.367Z,100307.91
2023-01-18T23:59:36.192Z,100301.88
